sensor_id;sensor_type;location;lat;lon;timestamp;temperature;humidity
15947;DHT22;8072;52.554;7.966;2023-07-09T00:02:13;21.10;99.90
15947;DHT22;8072;52.554;7.966;2023-07-09T00:04:40;21.20;99.90
15947;DHT22;8072;52.554;7.966;2023-07-09T00:07:33;21.20;99.90
15947;DHT22;8072;52.554;7.966;2023-07-09T00:09:58;21.20;99.90
15947;DHT22;8072;52.554;7.966;2023-07-09T00:12:24;21.30;99.90
15947;DHT22;8072;52.554;7.966;2023-07-09T00:14:50;21.30;99.90
15947;DHT22;8072;52.554;7.966;2023-07-09T00:17:30;21.30;99.90
15947;DHT22;8072;52.554;7.966;2023-07-09T00:19:57;21.30;99.90
15947;DHT22;8072;52.554;7.966;2023-07-09T00:22:24;21.30;99.90
15947;DHT22;8072;52.554;7.966;2023-07-09T00:24:51;21.30;99.90
15947;DHT22;8072;52.554;7.966;2023-07-09T00:27:18;21.20;99.90
15947;DHT22;8072;52.554;7.966;2023-07-09T00:29:45;21.10;99.90
15947;DHT22;8072;52.554;7.966;2023-07-09T00:32:15;21.10;99.90
15947;DHT22;8072;52.554;7.966;2023-07-09T00:34:44;21.10;99.90
15947;DHT22;8072;52.554;7.966;2023-07-09T00:37:21;21.10;99.90
15947;DHT22;8072;52.554;7.966;2023-07-09T00:39:51;21.10;99.90
15947;DHT22;8072;52.554;7.966;2023-07-09T00:42:20;21.10;99.90
15947;DHT22;8072;52.554;7.966;2023-07-09T00:44:51;21.00;99.90
15947;DHT22;8072;52.554;7.966;2023-07-09T00:47:39;21.00;99.90
15947;DHT22;8072;52.554;7.966;2023-07-09T00:53:13;21.00;99.90
15947;DHT22;8072;52.554;7.966;2023-07-09T00:55:45;21.00;99.90
15947;DHT22;8072;52.554;7.966;2023-07-09T00:58:15;21.00;99.90
15947;DHT22;8072;52.554;7.966;2023-07-09T01:00:46;21.00;99.90
15947;DHT22;8072;52.554;7.966;2023-07-09T01:03:23;20.90;99.90
15947;DHT22;8072;52.554;7.966;2023-07-09T01:05:51;20.90;99.90
15947;DHT22;8072;52.554;7.966;2023-07-09T01:08:21;20.90;99.90
15947;DHT22;8072;52.554;7.966;2023-07-09T01:10:47;20.90;99.90
15947;DHT22;8072;52.554;7.966;2023-07-09T01:13:13;20.80;99.90
15947;DHT22;8072;52.554;7.966;2023-07-09T01:15:40;20.80;99.90
15947;DHT22;8072;52.554;7.966;2023-07-09T01:18:06;20.80;99.90
15947;DHT22;8072;52.554;7.966;2023-07-09T01:20:32;20.80;99.90
15947;DHT22;8072;52.554;7.966;2023-07-09T01:23:00;20.80;99.90
15947;DHT22;8072;52.554;7.966;2023-07-09T01:25:26;20.80;99.90
15947;DHT22;8072;52.554;7.966;2023-07-09T01:27:54;20.70;99.90
15947;DHT22;8072;52.554;7.966;2023-07-09T01:30:27;20.70;99.90
15947;DHT22;8072;52.554;7.966;2023-07-09T01:32:59;20.70;99.90
15947;DHT22;8072;52.554;7.966;2023-07-09T01:35:28;20.70;99.90
15947;DHT22;8072;52.554;7.966;2023-07-09T01:37:55;20.70;99.90
15947;DHT22;8072;52.554;7.966;2023-07-09T01:40:23;20.70;99.90
15947;DHT22;8072;52.554;7.966;2023-07-09T01:42:51;20.70;99.90
15947;DHT22;8072;52.554;7.966;2023-07-09T01:45:18;20.70;99.90
15947;DHT22;8072;52.554;7.966;2023-07-09T01:47:46;20.70;99.90
15947;DHT22;8072;52.554;7.966;2023-07-09T01:50:12;20.60;99.90
15947;DHT22;8072;52.554;7.966;2023-07-09T01:52:42;20.60;99.90
15947;DHT22;8072;52.554;7.966;2023-07-09T01:55:11;20.60;99.90
15947;DHT22;8072;52.554;7.966;2023-07-09T01:57:40;20.50;99.90
15947;DHT22;8072;52.554;7.966;2023-07-09T02:00:10;20.40;99.90
15947;DHT22;8072;52.554;7.966;2023-07-09T02:02:38;20.30;99.90
15947;DHT22;8072;52.554;7.966;2023-07-09T02:05:10;20.20;99.90
15947;DHT22;8072;52.554;7.966;2023-07-09T02:07:37;20.10;99.90
15947;DHT22;8072;52.554;7.966;2023-07-09T02:10:03;20.10;99.90
15947;DHT22;8072;52.554;7.966;2023-07-09T02:12:29;20.10;99.90
15947;DHT22;8072;52.554;7.966;2023-07-09T02:14:55;20.10;99.90
15947;DHT22;8072;52.554;7.966;2023-07-09T02:17:21;20.10;99.90
15947;DHT22;8072;52.554;7.966;2023-07-09T02:19:46;20.10;99.90
15947;DHT22;8072;52.554;7.966;2023-07-09T02:22:13;20.10;99.90
15947;DHT22;8072;52.554;7.966;2023-07-09T02:24:38;20.10;99.90
15947;DHT22;8072;52.554;7.966;2023-07-09T02:27:06;20.10;99.90
15947;DHT22;8072;52.554;7.966;2023-07-09T02:29:34;20.10;99.90
15947;DHT22;8072;52.554;7.966;2023-07-09T02:32:00;20.10;99.90
15947;DHT22;8072;52.554;7.966;2023-07-09T02:34:27;20.10;99.90
15947;DHT22;8072;52.554;7.966;2023-07-09T02:36:55;20.10;99.90
15947;DHT22;8072;52.554;7.966;2023-07-09T02:39:22;20.10;99.90
15947;DHT22;8072;52.554;7.966;2023-07-09T02:41:49;20.10;99.90
15947;DHT22;8072;52.554;7.966;2023-07-09T02:44:16;20.10;99.90
15947;DHT22;8072;52.554;7.966;2023-07-09T02:46:42;20.10;99.90
15947;DHT22;8072;52.554;7.966;2023-07-09T02:49:12;20.10;99.90
15947;DHT22;8072;52.554;7.966;2023-07-09T02:51:38;20.10;99.90
15947;DHT22;8072;52.554;7.966;2023-07-09T02:54:04;20.10;99.90
15947;DHT22;8072;52.554;7.966;2023-07-09T02:56:30;20.00;99.90
15947;DHT22;8072;52.554;7.966;2023-07-09T02:58:56;20.00;99.90
15947;DHT22;8072;52.554;7.966;2023-07-09T03:01:22;19.90;99.90
15947;DHT22;8072;52.554;7.966;2023-07-09T03:03:52;19.90;99.90
15947;DHT22;8072;52.554;7.966;2023-07-09T03:06:20;19.90;99.90
15947;DHT22;8072;52.554;7.966;2023-07-09T03:08:47;19.90;99.90
15947;DHT22;8072;52.554;7.966;2023-07-09T03:11:15;19.90;99.90
15947;DHT22;8072;52.554;7.966;2023-07-09T03:13:42;19.90;99.90
15947;DHT22;8072;52.554;7.966;2023-07-09T03:16:08;19.80;99.90
15947;DHT22;8072;52.554;7.966;2023-07-09T03:18:34;19.80;99.90
15947;DHT22;8072;52.554;7.966;2023-07-09T03:21:01;19.70;99.90
15947;DHT22;8072;52.554;7.966;2023-07-09T03:23:28;19.70;99.90
15947;DHT22;8072;52.554;7.966;2023-07-09T03:25:55;19.60;99.90
15947;DHT22;8072;52.554;7.966;2023-07-09T03:28:22;19.60;99.90
15947;DHT22;8072;52.554;7.966;2023-07-09T03:30:49;19.60;99.90
15947;DHT22;8072;52.554;7.966;2023-07-09T03:33:18;19.50;99.90
15947;DHT22;8072;52.554;7.966;2023-07-09T03:35:44;19.40;99.90
15947;DHT22;8072;52.554;7.966;2023-07-09T03:38:11;19.40;99.90
15947;DHT22;8072;52.554;7.966;2023-07-09T03:40:38;19.40;99.90
15947;DHT22;8072;52.554;7.966;2023-07-09T03:43:05;19.40;99.90
15947;DHT22;8072;52.554;7.966;2023-07-09T03:45:32;19.40;99.90
15947;DHT22;8072;52.554;7.966;2023-07-09T03:47:58;19.40;99.90
15947;DHT22;8072;52.554;7.966;2023-07-09T03:50:26;19.40;99.90
15947;DHT22;8072;52.554;7.966;2023-07-09T03:52:53;19.40;99.90
15947;DHT22;8072;52.554;7.966;2023-07-09T03:55:21;19.40;99.90
15947;DHT22;8072;52.554;7.966;2023-07-09T03:57:48;19.40;99.90
15947;DHT22;8072;52.554;7.966;2023-07-09T04:00:17;19.50;99.90
15947;DHT22;8072;52.554;7.966;2023-07-09T04:02:44;19.40;99.90
15947;DHT22;8072;52.554;7.966;2023-07-09T04:05:11;19.40;99.90
15947;DHT22;8072;52.554;7.966;2023-07-09T04:07:38;19.50;99.90
15947;DHT22;8072;52.554;7.966;2023-07-09T04:10:05;19.50;99.90
15947;DHT22;8072;52.554;7.966;2023-07-09T04:12:31;19.50;99.90
15947;DHT22;8072;52.554;7.966;2023-07-09T04:14:58;19.50;99.90
15947;DHT22;8072;52.554;7.966;2023-07-09T04:17:24;19.50;99.90
15947;DHT22;8072;52.554;7.966;2023-07-09T04:19:50;19.50;99.90
15947;DHT22;8072;52.554;7.966;2023-07-09T04:22:17;19.50;99.90
15947;DHT22;8072;52.554;7.966;2023-07-09T04:24:44;19.60;99.90
15947;DHT22;8072;52.554;7.966;2023-07-09T04:27:10;19.60;99.90
15947;DHT22;8072;52.554;7.966;2023-07-09T04:29:36;19.60;99.90
15947;DHT22;8072;52.554;7.966;2023-07-09T04:32:05;19.60;99.90
15947;DHT22;8072;52.554;7.966;2023-07-09T04:34:31;19.60;99.90
15947;DHT22;8072;52.554;7.966;2023-07-09T04:36:58;19.60;99.90
15947;DHT22;8072;52.554;7.966;2023-07-09T04:39:24;19.60;99.90
15947;DHT22;8072;52.554;7.966;2023-07-09T04:41:53;19.70;99.90
15947;DHT22;8072;52.554;7.966;2023-07-09T04:44:20;19.70;99.90
15947;DHT22;8072;52.554;7.966;2023-07-09T04:46:46;19.70;99.90
15947;DHT22;8072;52.554;7.966;2023-07-09T04:49:13;19.80;99.90
15947;DHT22;8072;52.554;7.966;2023-07-09T04:51:39;19.80;99.90
15947;DHT22;8072;52.554;7.966;2023-07-09T04:54:06;19.90;99.90
15947;DHT22;8072;52.554;7.966;2023-07-09T04:56:32;19.90;99.90
15947;DHT22;8072;52.554;7.966;2023-07-09T04:58:58;20.00;99.90
15947;DHT22;8072;52.554;7.966;2023-07-09T05:01:24;20.00;99.90
15947;DHT22;8072;52.554;7.966;2023-07-09T05:03:51;20.00;99.90
15947;DHT22;8072;52.554;7.966;2023-07-09T05:06:18;20.00;99.90
15947;DHT22;8072;52.554;7.966;2023-07-09T05:08:45;20.10;99.90
15947;DHT22;8072;52.554;7.966;2023-07-09T05:11:11;20.10;99.90
15947;DHT22;8072;52.554;7.966;2023-07-09T05:13:37;20.20;99.90
15947;DHT22;8072;52.554;7.966;2023-07-09T05:16:03;20.20;99.90
15947;DHT22;8072;52.554;7.966;2023-07-09T05:18:29;20.20;99.90
15947;DHT22;8072;52.554;7.966;2023-07-09T05:20:55;20.30;99.90
15947;DHT22;8072;52.554;7.966;2023-07-09T05:23:23;20.40;99.90
15947;DHT22;8072;52.554;7.966;2023-07-09T05:25:55;20.50;99.90
15947;DHT22;8072;52.554;7.966;2023-07-09T05:28:26;20.50;99.90
15947;DHT22;8072;52.554;7.966;2023-07-09T05:30:53;20.50;99.90
15947;DHT22;8072;52.554;7.966;2023-07-09T05:33:19;20.60;99.90
15947;DHT22;8072;52.554;7.966;2023-07-09T05:35:45;20.60;99.90
15947;DHT22;8072;52.554;7.966;2023-07-09T05:38:12;20.70;99.90
15947;DHT22;8072;52.554;7.966;2023-07-09T05:40:40;20.80;99.90
15947;DHT22;8072;52.554;7.966;2023-07-09T05:43:06;20.80;99.90
15947;DHT22;8072;52.554;7.966;2023-07-09T05:45:32;20.90;99.90
15947;DHT22;8072;52.554;7.966;2023-07-09T05:47:58;21.00;99.90
15947;DHT22;8072;52.554;7.966;2023-07-09T05:50:26;21.00;99.90
15947;DHT22;8072;52.554;7.966;2023-07-09T05:52:52;21.10;99.90
15947;DHT22;8072;52.554;7.966;2023-07-09T05:55:21;21.20;99.90
15947;DHT22;8072;52.554;7.966;2023-07-09T05:57:47;21.20;99.90
15947;DHT22;8072;52.554;7.966;2023-07-09T06:00:14;21.30;99.90
15947;DHT22;8072;52.554;7.966;2023-07-09T06:02:40;21.40;99.90
15947;DHT22;8072;52.554;7.966;2023-07-09T06:05:06;21.50;99.90
15947;DHT22;8072;52.554;7.966;2023-07-09T06:07:35;21.50;99.90
15947;DHT22;8072;52.554;7.966;2023-07-09T06:10:00;21.60;99.90
15947;DHT22;8072;52.554;7.966;2023-07-09T06:12:26;21.70;99.90
15947;DHT22;8072;52.554;7.966;2023-07-09T06:14:52;21.70;99.90
15947;DHT22;8072;52.554;7.966;2023-07-09T06:17:18;21.80;99.90
15947;DHT22;8072;52.554;7.966;2023-07-09T06:19:44;21.90;99.90
15947;DHT22;8072;52.554;7.966;2023-07-09T06:22:09;22.00;99.90
15947;DHT22;8072;52.554;7.966;2023-07-09T06:24:35;22.10;99.90
15947;DHT22;8072;52.554;7.966;2023-07-09T06:27:01;22.30;99.90
15947;DHT22;8072;52.554;7.966;2023-07-09T06:29:27;22.40;99.90
15947;DHT22;8072;52.554;7.966;2023-07-09T06:31:53;22.50;99.90
15947;DHT22;8072;52.554;7.966;2023-07-09T06:34:18;22.60;99.90
15947;DHT22;8072;52.554;7.966;2023-07-09T06:36:46;22.70;99.90
15947;DHT22;8072;52.554;7.966;2023-07-09T06:39:11;22.80;99.90
15947;DHT22;8072;52.554;7.966;2023-07-09T06:41:37;22.80;99.90
15947;DHT22;8072;52.554;7.966;2023-07-09T06:44:08;22.90;99.90
15947;DHT22;8072;52.554;7.966;2023-07-09T06:46:35;22.90;99.90
15947;DHT22;8072;52.554;7.966;2023-07-09T06:49:03;23.10;99.90
15947;DHT22;8072;52.554;7.966;2023-07-09T06:51:31;23.10;99.90
15947;DHT22;8072;52.554;7.966;2023-07-09T06:53:57;23.20;99.90
15947;DHT22;8072;52.554;7.966;2023-07-09T06:56:23;23.20;99.90
15947;DHT22;8072;52.554;7.966;2023-07-09T06:58:49;23.30;99.90
15947;DHT22;8072;52.554;7.966;2023-07-09T07:01:15;23.30;99.90
15947;DHT22;8072;52.554;7.966;2023-07-09T07:03:41;23.30;99.90
15947;DHT22;8072;52.554;7.966;2023-07-09T07:06:07;23.40;99.90
15947;DHT22;8072;52.554;7.966;2023-07-09T07:08:33;23.50;99.90
15947;DHT22;8072;52.554;7.966;2023-07-09T07:11:02;23.50;99.90
15947;DHT22;8072;52.554;7.966;2023-07-09T07:13:36;23.60;99.90
15947;DHT22;8072;52.554;7.966;2023-07-09T07:16:10;23.70;99.90
15947;DHT22;8072;52.554;7.966;2023-07-09T07:18:36;23.80;99.90
15947;DHT22;8072;52.554;7.966;2023-07-09T07:21:03;23.80;99.90
15947;DHT22;8072;52.554;7.966;2023-07-09T07:23:29;23.80;99.90
15947;DHT22;8072;52.554;7.966;2023-07-09T07:25:55;23.90;99.90
15947;DHT22;8072;52.554;7.966;2023-07-09T07:28:21;23.90;99.90
15947;DHT22;8072;52.554;7.966;2023-07-09T07:30:47;24.00;99.90
15947;DHT22;8072;52.554;7.966;2023-07-09T07:33:22;24.10;99.90
15947;DHT22;8072;52.554;7.966;2023-07-09T07:35:48;24.20;99.90
15947;DHT22;8072;52.554;7.966;2023-07-09T07:38:14;24.30;99.90
15947;DHT22;8072;52.554;7.966;2023-07-09T07:40:44;24.30;99.90
15947;DHT22;8072;52.554;7.966;2023-07-09T07:43:10;24.40;99.90
15947;DHT22;8072;52.554;7.966;2023-07-09T07:45:39;24.50;99.90
15947;DHT22;8072;52.554;7.966;2023-07-09T07:48:05;24.60;99.90
15947;DHT22;8072;52.554;7.966;2023-07-09T07:50:31;24.70;99.90
15947;DHT22;8072;52.554;7.966;2023-07-09T07:52:57;24.80;99.90
15947;DHT22;8072;52.554;7.966;2023-07-09T07:55:23;24.90;99.90
15947;DHT22;8072;52.554;7.966;2023-07-09T07:57:48;24.90;99.90
15947;DHT22;8072;52.554;7.966;2023-07-09T08:00:15;25.00;99.90
15947;DHT22;8072;52.554;7.966;2023-07-09T08:02:41;25.10;99.90
15947;DHT22;8072;52.554;7.966;2023-07-09T08:05:08;25.20;99.90
15947;DHT22;8072;52.554;7.966;2023-07-09T08:07:35;25.30;99.90
15947;DHT22;8072;52.554;7.966;2023-07-09T08:10:00;25.30;99.90
15947;DHT22;8072;52.554;7.966;2023-07-09T08:12:26;25.40;99.90
15947;DHT22;8072;52.554;7.966;2023-07-09T08:14:52;25.40;99.90
15947;DHT22;8072;52.554;7.966;2023-07-09T08:17:17;25.50;99.90
15947;DHT22;8072;52.554;7.966;2023-07-09T08:19:50;25.50;99.90
15947;DHT22;8072;52.554;7.966;2023-07-09T08:22:17;25.50;99.90
15947;DHT22;8072;52.554;7.966;2023-07-09T08:24:43;25.50;99.90
15947;DHT22;8072;52.554;7.966;2023-07-09T08:27:09;25.60;99.90
15947;DHT22;8072;52.554;7.966;2023-07-09T08:29:35;25.70;99.90
15947;DHT22;8072;52.554;7.966;2023-07-09T08:32:02;25.80;99.90
15947;DHT22;8072;52.554;7.966;2023-07-09T08:34:28;25.80;99.90
15947;DHT22;8072;52.554;7.966;2023-07-09T08:36:53;25.90;99.90
15947;DHT22;8072;52.554;7.966;2023-07-09T08:39:19;26.10;99.90
15947;DHT22;8072;52.554;7.966;2023-07-09T08:42:01;26.20;99.90
15947;DHT22;8072;52.554;7.966;2023-07-09T08:50:10;26.60;99.90
15947;DHT22;8072;52.554;7.966;2023-07-09T08:52:43;26.70;99.90
15947;DHT22;8072;52.554;7.966;2023-07-09T08:55:23;26.80;99.90
15947;DHT22;8072;52.554;7.966;2023-07-09T08:58:05;27.00;99.90
15947;DHT22;8072;52.554;7.966;2023-07-09T09:00:58;27.10;99.90
15947;DHT22;8072;52.554;7.966;2023-07-09T09:06:15;27.40;99.90
15947;DHT22;8072;52.554;7.966;2023-07-09T09:11:20;27.60;99.90
15947;DHT22;8072;52.554;7.966;2023-07-09T09:13:50;27.60;99.90
15947;DHT22;8072;52.554;7.966;2023-07-09T09:16:24;27.70;99.90
15947;DHT22;8072;52.554;7.966;2023-07-09T09:18:55;27.80;99.90
15947;DHT22;8072;52.554;7.966;2023-07-09T09:23:57;28.00;99.90
15947;DHT22;8072;52.554;7.966;2023-07-09T09:26:31;28.10;99.90
15947;DHT22;8072;52.554;7.966;2023-07-09T09:28:58;28.20;99.90
15947;DHT22;8072;52.554;7.966;2023-07-09T09:31:27;28.40;99.90
15947;DHT22;8072;52.554;7.966;2023-07-09T09:33:54;28.50;99.90
15947;DHT22;8072;52.554;7.966;2023-07-09T09:36:25;28.50;99.90
15947;DHT22;8072;52.554;7.966;2023-07-09T09:38:52;28.60;99.90
15947;DHT22;8072;52.554;7.966;2023-07-09T09:41:22;28.60;99.90
15947;DHT22;8072;52.554;7.966;2023-07-09T09:43:50;28.80;99.90
15947;DHT22;8072;52.554;7.966;2023-07-09T09:46:23;28.90;99.90
15947;DHT22;8072;52.554;7.966;2023-07-09T09:48:52;29.10;99.90
15947;DHT22;8072;52.554;7.966;2023-07-09T09:51:20;29.20;99.90
15947;DHT22;8072;52.554;7.966;2023-07-09T09:53:51;29.20;99.90
15947;DHT22;8072;52.554;7.966;2023-07-09T09:56:37;29.20;99.90
15947;DHT22;8072;52.554;7.966;2023-07-09T09:59:04;29.40;99.90
15947;DHT22;8072;52.554;7.966;2023-07-09T10:01:33;29.40;99.90
15947;DHT22;8072;52.554;7.966;2023-07-09T10:04:04;29.60;99.90
15947;DHT22;8072;52.554;7.966;2023-07-09T10:09:13;29.80;99.90
15947;DHT22;8072;52.554;7.966;2023-07-09T10:14:38;30.10;99.90
15947;DHT22;8072;52.554;7.966;2023-07-09T10:17:42;30.20;99.90
15947;DHT22;8072;52.554;7.966;2023-07-09T10:20:24;30.30;99.90
15947;DHT22;8072;52.554;7.966;2023-07-09T10:25:48;30.50;99.90
15947;DHT22;8072;52.554;7.966;2023-07-09T10:31:57;30.80;99.90
15947;DHT22;8072;52.554;7.966;2023-07-09T10:39:42;31.30;99.90
15947;DHT22;8072;52.554;7.966;2023-07-09T10:42:30;31.30;99.90
15947;DHT22;8072;52.554;7.966;2023-07-09T10:45:02;31.50;99.90
15947;DHT22;8072;52.554;7.966;2023-07-09T10:47:59;31.70;99.90
15947;DHT22;8072;52.554;7.966;2023-07-09T10:50:32;31.70;99.90
15947;DHT22;8072;52.554;7.966;2023-07-09T10:53:06;31.90;99.90
15947;DHT22;8072;52.554;7.966;2023-07-09T11:00:53;32.10;99.90
15947;DHT22;8072;52.554;7.966;2023-07-09T11:03:28;32.30;99.90
15947;DHT22;8072;52.554;7.966;2023-07-09T11:05:57;32.50;99.90
15947;DHT22;8072;52.554;7.966;2023-07-09T11:08:32;32.60;99.90
15947;DHT22;8072;52.554;7.966;2023-07-09T11:11:13;32.60;99.90
15947;DHT22;8072;52.554;7.966;2023-07-09T11:13:44;32.80;99.90
15947;DHT22;8072;52.554;7.966;2023-07-09T11:16:20;32.90;99.90
15947;DHT22;8072;52.554;7.966;2023-07-09T11:18:56;32.90;99.90
15947;DHT22;8072;52.554;7.966;2023-07-09T11:21:23;32.70;99.90
15947;DHT22;8072;52.554;7.966;2023-07-09T11:23:51;32.70;99.90
15947;DHT22;8072;52.554;7.966;2023-07-09T11:31:39;33.00;99.90
15947;DHT22;8072;52.554;7.966;2023-07-09T11:36:59;33.10;99.90
15947;DHT22;8072;52.554;7.966;2023-07-09T11:39:29;33.20;99.90
15947;DHT22;8072;52.554;7.966;2023-07-09T11:41:56;33.30;99.90
15947;DHT22;8072;52.554;7.966;2023-07-09T11:44:33;33.50;99.90
15947;DHT22;8072;52.554;7.966;2023-07-09T11:49:57;33.60;99.90
15947;DHT22;8072;52.554;7.966;2023-07-09T11:52:47;33.50;99.90
15947;DHT22;8072;52.554;7.966;2023-07-09T11:57:53;33.70;99.90
15947;DHT22;8072;52.554;7.966;2023-07-09T12:00:20;33.70;99.90
15947;DHT22;8072;52.554;7.966;2023-07-09T12:02:45;33.80;99.90
15947;DHT22;8072;52.554;7.966;2023-07-09T12:05:12;33.90;99.90
15947;DHT22;8072;52.554;7.966;2023-07-09T12:07:39;34.00;99.90
15947;DHT22;8072;52.554;7.966;2023-07-09T12:10:20;34.10;99.90
15947;DHT22;8072;52.554;7.966;2023-07-09T12:12:46;34.10;99.90
15947;DHT22;8072;52.554;7.966;2023-07-09T12:15:21;34.10;99.90
15947;DHT22;8072;52.554;7.966;2023-07-09T12:17:59;34.10;99.90
15947;DHT22;8072;52.554;7.966;2023-07-09T12:20:29;34.10;99.90
15947;DHT22;8072;52.554;7.966;2023-07-09T12:22:56;34.10;99.90
15947;DHT22;8072;52.554;7.966;2023-07-09T12:25:27;34.10;99.90
15947;DHT22;8072;52.554;7.966;2023-07-09T12:27:54;34.10;99.90
15947;DHT22;8072;52.554;7.966;2023-07-09T12:30:20;34.20;99.90
15947;DHT22;8072;52.554;7.966;2023-07-09T12:32:48;34.10;99.90
15947;DHT22;8072;52.554;7.966;2023-07-09T12:35:20;34.10;99.90
15947;DHT22;8072;52.554;7.966;2023-07-09T12:37:48;34.10;99.90
15947;DHT22;8072;52.554;7.966;2023-07-09T12:40:23;34.10;99.90
15947;DHT22;8072;52.554;7.966;2023-07-09T12:42:54;34.20;99.90
15947;DHT22;8072;52.554;7.966;2023-07-09T12:45:23;34.30;99.90
15947;DHT22;8072;52.554;7.966;2023-07-09T12:47:50;34.20;99.90
15947;DHT22;8072;52.554;7.966;2023-07-09T12:50:34;34.00;99.90
15947;DHT22;8072;52.554;7.966;2023-07-09T12:53:13;33.90;99.90
15947;DHT22;8072;52.554;7.966;2023-07-09T12:55:41;33.90;99.90
15947;DHT22;8072;52.554;7.966;2023-07-09T12:58:21;34.00;99.90
15947;DHT22;8072;52.554;7.966;2023-07-09T13:00:49;34.10;99.90
15947;DHT22;8072;52.554;7.966;2023-07-09T13:03:19;34.20;99.90
15947;DHT22;8072;52.554;7.966;2023-07-09T13:05:57;34.30;99.90
15947;DHT22;8072;52.554;7.966;2023-07-09T13:08:25;34.40;99.90
15947;DHT22;8072;52.554;7.966;2023-07-09T13:10:51;34.50;99.90
15947;DHT22;8072;52.554;7.966;2023-07-09T13:13:21;34.50;99.90
15947;DHT22;8072;52.554;7.966;2023-07-09T13:15:59;34.50;99.90
15947;DHT22;8072;52.554;7.966;2023-07-09T13:18:27;34.50;99.90
15947;DHT22;8072;52.554;7.966;2023-07-09T13:20:55;34.50;99.90
15947;DHT22;8072;52.554;7.966;2023-07-09T13:23:24;34.40;99.90
15947;DHT22;8072;52.554;7.966;2023-07-09T13:25:50;34.40;99.90
15947;DHT22;8072;52.554;7.966;2023-07-09T13:28:23;34.50;99.90
15947;DHT22;8072;52.554;7.966;2023-07-09T13:30:56;34.50;99.90
15947;DHT22;8072;52.554;7.966;2023-07-09T13:33:23;34.60;99.90
15947;DHT22;8072;52.554;7.966;2023-07-09T13:35:49;34.60;99.90
15947;DHT22;8072;52.554;7.966;2023-07-09T13:38:19;34.50;99.90
15947;DHT22;8072;52.554;7.966;2023-07-09T13:40:51;34.50;99.90
15947;DHT22;8072;52.554;7.966;2023-07-09T13:43:26;34.60;99.90
15947;DHT22;8072;52.554;7.966;2023-07-09T13:45:53;34.60;99.90
15947;DHT22;8072;52.554;7.966;2023-07-09T13:48:20;34.60;99.90
15947;DHT22;8072;52.554;7.966;2023-07-09T13:50:49;34.60;99.90
15947;DHT22;8072;52.554;7.966;2023-07-09T13:53:18;34.60;99.90
15947;DHT22;8072;52.554;7.966;2023-07-09T13:55:46;34.70;99.90
15947;DHT22;8072;52.554;7.966;2023-07-09T13:58:13;34.70;99.90
15947;DHT22;8072;52.554;7.966;2023-07-09T14:00:41;34.70;99.90
15947;DHT22;8072;52.554;7.966;2023-07-09T14:03:19;34.80;99.90
15947;DHT22;8072;52.554;7.966;2023-07-09T14:05:46;34.70;99.90
15947;DHT22;8072;52.554;7.966;2023-07-09T14:08:12;34.60;99.90
15947;DHT22;8072;52.554;7.966;2023-07-09T14:10:38;34.60;99.90
15947;DHT22;8072;52.554;7.966;2023-07-09T14:13:05;34.60;99.90
15947;DHT22;8072;52.554;7.966;2023-07-09T14:15:31;34.60;99.90
15947;DHT22;8072;52.554;7.966;2023-07-09T14:17:56;34.60;99.90
15947;DHT22;8072;52.554;7.966;2023-07-09T14:20:24;34.60;99.90
15947;DHT22;8072;52.554;7.966;2023-07-09T14:22:50;34.60;99.90
15947;DHT22;8072;52.554;7.966;2023-07-09T14:25:34;34.60;99.90
15947;DHT22;8072;52.554;7.966;2023-07-09T14:28:00;34.50;99.90
15947;DHT22;8072;52.554;7.966;2023-07-09T14:30:26;34.40;99.90
15947;DHT22;8072;52.554;7.966;2023-07-09T14:32:52;34.30;99.90
15947;DHT22;8072;52.554;7.966;2023-07-09T14:35:22;34.20;99.90
15947;DHT22;8072;52.554;7.966;2023-07-09T14:37:51;34.10;99.90
15947;DHT22;8072;52.554;7.966;2023-07-09T14:40:18;34.10;99.90
15947;DHT22;8072;52.554;7.966;2023-07-09T14:42:46;34.10;99.90
15947;DHT22;8072;52.554;7.966;2023-07-09T14:47:43;34.00;99.90
15947;DHT22;8072;52.554;7.966;2023-07-09T14:50:09;34.00;99.90
15947;DHT22;8072;52.554;7.966;2023-07-09T14:52:38;33.90;99.90
15947;DHT22;8072;52.554;7.966;2023-07-09T14:55:04;33.90;99.90
15947;DHT22;8072;52.554;7.966;2023-07-09T14:57:30;33.80;99.90
15947;DHT22;8072;52.554;7.966;2023-07-09T14:59:57;33.90;99.90
15947;DHT22;8072;52.554;7.966;2023-07-09T15:02:37;33.90;99.90
15947;DHT22;8072;52.554;7.966;2023-07-09T15:05:15;33.90;99.90
15947;DHT22;8072;52.554;7.966;2023-07-09T15:07:42;33.80;99.90
15947;DHT22;8072;52.554;7.966;2023-07-09T15:10:12;33.90;99.90
15947;DHT22;8072;52.554;7.966;2023-07-09T15:12:39;33.80;99.90
15947;DHT22;8072;52.554;7.966;2023-07-09T15:15:20;33.80;99.90
15947;DHT22;8072;52.554;7.966;2023-07-09T15:17:48;33.80;99.90
15947;DHT22;8072;52.554;7.966;2023-07-09T15:20:24;33.70;99.90
15947;DHT22;8072;52.554;7.966;2023-07-09T15:22:52;33.70;99.90
15947;DHT22;8072;52.554;7.966;2023-07-09T15:25:22;33.60;99.90
15947;DHT22;8072;52.554;7.966;2023-07-09T15:27:48;33.50;99.90
15947;DHT22;8072;52.554;7.966;2023-07-09T15:30:23;33.40;99.90
15947;DHT22;8072;52.554;7.966;2023-07-09T15:32:49;33.30;99.90
15947;DHT22;8072;52.554;7.966;2023-07-09T15:35:17;33.30;99.90
15947;DHT22;8072;52.554;7.966;2023-07-09T15:37:43;33.20;99.90
15947;DHT22;8072;52.554;7.966;2023-07-09T15:42:47;33.00;99.90
15947;DHT22;8072;52.554;7.966;2023-07-09T15:45:15;32.90;99.90
15947;DHT22;8072;52.554;7.966;2023-07-09T15:47:42;32.80;99.90
15947;DHT22;8072;52.554;7.966;2023-07-09T15:50:23;32.80;99.90
15947;DHT22;8072;52.554;7.966;2023-07-09T15:52:51;32.70;99.90
15947;DHT22;8072;52.554;7.966;2023-07-09T15:55:20;32.70;99.90
15947;DHT22;8072;52.554;7.966;2023-07-09T15:57:47;32.60;99.90
15947;DHT22;8072;52.554;7.966;2023-07-09T16:00:27;32.50;99.90
15947;DHT22;8072;52.554;7.966;2023-07-09T16:02:54;32.40;99.90
15947;DHT22;8072;52.554;7.966;2023-07-09T16:05:29;32.30;99.90
15947;DHT22;8072;52.554;7.966;2023-07-09T16:07:57;32.30;99.90
15947;DHT22;8072;52.554;7.966;2023-07-09T16:10:25;32.10;99.90
15947;DHT22;8072;52.554;7.966;2023-07-09T16:12:51;32.00;99.90
15947;DHT22;8072;52.554;7.966;2023-07-09T16:15:19;31.90;99.90
15947;DHT22;8072;52.554;7.966;2023-07-09T16:17:47;31.80;99.90
15947;DHT22;8072;52.554;7.966;2023-07-09T16:20:15;31.70;99.90
15947;DHT22;8072;52.554;7.966;2023-07-09T16:22:49;31.50;99.90
15947;DHT22;8072;52.554;7.966;2023-07-09T16:25:18;31.40;99.90
15947;DHT22;8072;52.554;7.966;2023-07-09T16:27:45;31.40;99.90
15947;DHT22;8072;52.554;7.966;2023-07-09T16:30:23;31.30;99.90
15947;DHT22;8072;52.554;7.966;2023-07-09T16:32:50;31.20;99.90
15947;DHT22;8072;52.554;7.966;2023-07-09T16:35:18;31.10;99.90
15947;DHT22;8072;52.554;7.966;2023-07-09T16:37:46;31.00;99.90
15947;DHT22;8072;52.554;7.966;2023-07-09T16:40:21;30.90;99.90
15947;DHT22;8072;52.554;7.966;2023-07-09T16:42:48;30.80;99.90
15947;DHT22;8072;52.554;7.966;2023-07-09T16:45:16;30.80;99.90
15947;DHT22;8072;52.554;7.966;2023-07-09T16:47:43;30.70;99.90
15947;DHT22;8072;52.554;7.966;2023-07-09T16:50:17;30.60;99.90
15947;DHT22;8072;52.554;7.966;2023-07-09T16:52:44;30.50;99.90
15947;DHT22;8072;52.554;7.966;2023-07-09T16:55:15;30.40;99.90